createdAt,value
2022-08-01T00:00:09.422Z,21.54
2022-08-01T00:02:40.009Z,21.49
2022-08-01T00:05:08.103Z,21.50
2022-08-01T00:07:35.805Z,21.51
2022-08-01T00:10:06.972Z,21.53
2022-08-01T00:12:33.540Z,21.53
2022-08-01T00:15:00.313Z,21.56
2022-08-01T00:17:26.815Z,21.56
2022-08-01T00:19:53.367Z,21.57
2022-08-01T00:22:19.797Z,21.54
2022-08-01T00:24:46.473Z,21.45
2022-08-01T00:27:12.906Z,21.46
2022-08-01T00:30:11.263Z,21.45
2022-08-01T00:32:26.013Z,21.48
2022-08-01T00:34:52.681Z,21.44
2022-08-01T00:37:19.159Z,21.41
2022-08-01T00:39:45.729Z,21.45
2022-08-01T00:42:13.708Z,21.50
2022-08-01T00:44:41.094Z,21.54
2022-08-01T00:47:08.123Z,21.56
2022-08-01T00:49:35.136Z,21.55
2022-08-01T00:52:05.558Z,21.52
2022-08-01T00:54:33.253Z,21.51
2022-08-01T00:57:00.099Z,21.48
2022-08-01T00:59:27.964Z,21.48
2022-08-01T01:01:55.223Z,21.49
2022-08-01T01:04:22.756Z,21.42
2022-08-01T01:07:14.493Z,21.39
2022-08-01T01:09:51.364Z,21.42
2022-08-01T01:12:37.273Z,21.36
2022-08-01T01:15:12.506Z,21.37
2022-08-01T01:18:07.898Z,21.38
2022-08-01T01:20:40.829Z,21.46
2022-08-01T01:23:13.290Z,21.50
2022-08-01T01:25:39.787Z,21.53
2022-08-01T01:28:15.795Z,21.52
2022-08-01T01:30:45.663Z,21.54
2022-08-01T01:33:14.666Z,21.50
2022-08-01T01:35:45.903Z,21.47
2022-08-01T01:38:21.061Z,21.49
2022-08-01T01:40:49.882Z,21.52
2022-08-01T01:43:17.748Z,21.53
2022-08-01T01:45:46.341Z,21.53
2022-08-01T01:48:15.811Z,21.48
2022-08-01T01:50:44.166Z,21.47
2022-08-01T01:53:15.140Z,21.50
2022-08-01T01:55:49.866Z,21.53
2022-08-01T01:58:18.698Z,21.51
2022-08-01T02:00:48.452Z,21.51
2022-08-01T02:03:18.465Z,21.52
2022-08-01T02:05:45.314Z,21.48
2022-08-01T02:08:15.312Z,21.49
2022-08-01T02:10:42.631Z,21.49
2022-08-01T02:13:09.729Z,21.48
2022-08-01T02:15:59.983Z,21.47
2022-08-01T02:18:27.595Z,21.49
2022-08-01T02:20:56.875Z,21.49
2022-08-01T02:23:28.101Z,21.50
2022-08-01T02:26:11.008Z,21.49
2022-08-01T02:28:51.635Z,21.51
2022-08-01T02:31:21.542Z,21.51
2022-08-01T02:33:57.845Z,21.49
2022-08-01T02:36:30.629Z,21.48
2022-08-01T02:39:01.451Z,21.49
2022-08-01T02:41:30.104Z,21.48
2022-08-01T02:44:00.990Z,21.50
2022-08-01T02:46:34.147Z,21.50
2022-08-01T02:49:03.688Z,21.51
2022-08-01T02:51:32.028Z,21.51
2022-08-01T02:54:01.228Z,21.48
2022-08-01T02:56:35.880Z,21.47
2022-08-01T02:59:06.199Z,21.47
2022-08-01T03:01:37.579Z,21.48
2022-08-01T03:04:08.153Z,21.49
2022-08-01T03:06:35.813Z,21.48
2022-08-01T03:09:04.792Z,21.48
2022-08-01T03:11:33.490Z,21.47
2022-08-01T03:14:03.743Z,21.47
2022-08-01T03:16:33.217Z,21.46
2022-08-01T03:19:02.823Z,21.48
2022-08-01T03:21:31.216Z,21.47
2022-08-01T03:24:01.141Z,21.46
2022-08-01T03:26:29.946Z,21.46
2022-08-01T03:29:00.560Z,21.46
2022-08-01T03:31:28.632Z,21.44
2022-08-01T03:33:55.505Z,21.43
2022-08-01T03:36:26.405Z,21.44
2022-08-01T03:38:57.034Z,21.44
2022-08-01T03:41:26.212Z,21.43
2022-08-01T03:44:17.037Z,21.39
2022-08-01T03:46:48.306Z,21.40
2022-08-01T03:49:38.145Z,21.33
2022-08-01T03:52:08.030Z,21.34
2022-08-01T03:54:38.410Z,21.35
2022-08-01T03:57:06.281Z,21.35
2022-08-01T03:59:35.268Z,21.35
2022-08-01T04:02:01.941Z,21.31
2022-08-01T04:04:29.701Z,21.33
2022-08-01T04:06:56.607Z,21.35
2022-08-01T04:09:23.140Z,21.36
2022-08-01T04:11:49.791Z,21.38
2022-08-01T04:14:16.228Z,21.39
2022-08-01T04:16:42.769Z,21.40
2022-08-01T04:19:09.193Z,21.42
2022-08-01T04:21:36.688Z,21.42
2022-08-01T04:24:09.735Z,21.43
2022-08-01T04:26:38.061Z,21.44
2022-08-01T04:29:05.951Z,21.45
2022-08-01T04:31:33.657Z,21.46
2022-08-01T04:34:02.033Z,21.47
2022-08-01T04:36:31.245Z,21.48
2022-08-01T04:39:01.078Z,21.50
2022-08-01T04:41:27.968Z,21.52
2022-08-01T04:43:55.829Z,21.53
2022-08-01T04:46:23.321Z,21.55
2022-08-01T04:48:51.332Z,21.54
2022-08-01T04:51:18.698Z,21.48
2022-08-01T04:53:46.791Z,21.49
2022-08-01T04:56:14.235Z,21.51
2022-08-01T04:58:42.331Z,21.53
2022-08-01T05:01:10.341Z,21.52
2022-08-01T05:03:39.032Z,21.51
2022-08-01T05:06:06.359Z,21.50
2022-08-01T05:08:32.760Z,21.49
2022-08-01T05:10:59.639Z,21.46
2022-08-01T05:13:26.686Z,21.46
2022-08-01T05:15:53.535Z,21.44
2022-08-01T05:18:28.070Z,21.43
2022-08-01T05:20:55.624Z,21.41
2022-08-01T05:23:30.325Z,21.41
2022-08-01T05:26:08.922Z,21.43
2022-08-01T05:28:36.244Z,21.42
2022-08-01T05:31:03.565Z,21.42
2022-08-01T05:33:30.077Z,21.38
2022-08-01T05:35:56.630Z,21.39
2022-08-01T05:38:23.080Z,21.43
2022-08-01T05:40:49.570Z,21.48
2022-08-01T05:43:16.048Z,21.48
2022-08-01T05:45:42.727Z,21.53
2022-08-01T05:48:09.321Z,21.54
2022-08-01T05:50:35.716Z,21.54
2022-08-01T05:53:02.709Z,21.54
2022-08-01T05:55:29.360Z,21.52
2022-08-01T05:57:55.881Z,21.52
2022-08-01T06:00:22.318Z,21.51
2022-08-01T06:02:48.803Z,21.53
2022-08-01T06:05:15.371Z,21.54
2022-08-01T06:07:41.899Z,21.56
2022-08-01T06:10:09.162Z,21.57
2022-08-01T06:12:36.726Z,21.60
2022-08-01T06:15:04.817Z,21.65
2022-08-01T06:17:31.440Z,21.70
2022-08-01T06:19:57.974Z,21.70
2022-08-01T06:22:24.413Z,21.69
2022-08-01T06:24:52.290Z,21.70
2022-08-01T06:27:21.690Z,21.76
2022-08-01T06:29:50.392Z,21.83
2022-08-01T06:32:27.017Z,21.88
2022-08-01T06:34:56.030Z,21.86
2022-08-01T06:37:23.180Z,21.74
2022-08-01T06:39:50.529Z,21.66
2022-08-01T06:42:17.711Z,21.61
2022-08-01T06:44:44.235Z,21.56
2022-08-01T06:47:10.680Z,21.51
2022-08-01T06:49:37.268Z,21.49
2022-08-01T06:52:05.047Z,21.50
2022-08-01T06:54:31.791Z,21.61
2022-08-01T06:56:58.335Z,21.70
2022-08-01T06:59:24.776Z,21.76
2022-08-01T07:01:51.217Z,21.79
2022-08-01T07:04:17.817Z,21.81
2022-08-01T07:06:44.342Z,21.81
2022-08-01T07:09:14.211Z,21.81
2022-08-01T07:11:41.708Z,21.84
2022-08-01T07:14:08.583Z,21.92
2022-08-01T07:16:35.242Z,21.96
2022-08-01T07:19:01.783Z,21.93
2022-08-01T07:21:38.594Z,21.89
2022-08-01T07:24:13.163Z,21.81
2022-08-01T07:26:52.150Z,21.75
2022-08-01T07:29:26.922Z,21.69
2022-08-01T07:31:55.161Z,21.62
2022-08-01T07:34:22.422Z,21.59
2022-08-01T07:36:49.051Z,21.59
2022-08-01T07:39:15.544Z,21.66
2022-08-01T07:41:53.232Z,21.72
2022-08-01T07:44:29.346Z,21.84
2022-08-01T07:46:55.942Z,21.85
2022-08-01T07:49:22.927Z,21.86
2022-08-01T07:52:03.915Z,21.85
2022-08-01T07:54:33.057Z,21.87
2022-08-01T07:57:00.636Z,21.85
2022-08-01T07:59:27.281Z,21.87
2022-08-01T08:01:53.751Z,21.92
2022-08-01T08:04:20.319Z,21.99
2022-08-01T08:06:48.462Z,22.09
2022-08-01T08:09:15.725Z,22.09
2022-08-01T08:11:47.996Z,22.12
2022-08-01T08:14:18.467Z,22.12
2022-08-01T08:16:45.640Z,22.14
2022-08-01T08:19:12.614Z,22.04
2022-08-01T08:21:40.010Z,22.07
2022-08-01T08:24:26.502Z,22.18
2022-08-01T08:26:59.968Z,22.24
2022-08-01T08:29:28.801Z,22.25
2022-08-01T08:31:58.437Z,22.35
2022-08-01T08:34:26.261Z,22.47
2022-08-01T08:36:53.271Z,22.56
2022-08-01T08:39:20.350Z,22.57
2022-08-01T08:41:49.447Z,22.60
2022-08-01T08:44:18.070Z,22.51
2022-08-01T08:46:47.381Z,22.45
2022-08-01T08:49:17.553Z,22.50
2022-08-01T08:51:44.929Z,22.54
2022-08-01T08:54:13.771Z,22.49
2022-08-01T08:56:42.121Z,22.42
2022-08-01T08:59:08.727Z,22.42
2022-08-01T09:01:36.073Z,22.36
2022-08-01T09:04:06.289Z,22.22
2022-08-01T09:06:33.598Z,22.07
2022-08-01T09:09:00.826Z,21.91
2022-08-01T09:11:27.327Z,21.83
2022-08-01T09:14:12.710Z,21.80
2022-08-01T09:16:48.860Z,21.92
2022-08-01T09:19:40.423Z,22.06
2022-08-01T09:22:09.999Z,22.33
2022-08-01T09:24:37.660Z,22.52
2022-08-01T09:27:26.275Z,22.57
2022-08-01T09:30:00.811Z,22.57
2022-08-01T09:32:35.990Z,22.41
2022-08-01T09:35:43.668Z,22.18
2022-08-01T09:38:22.110Z,22.09
2022-08-01T09:40:49.880Z,22.11
2022-08-01T09:43:17.371Z,22.14
2022-08-01T09:45:45.733Z,22.16
2022-08-01T09:48:17.039Z,22.12
2022-08-01T09:50:45.039Z,22.10
2022-08-01T09:53:29.631Z,22.12
2022-08-01T09:56:09.722Z,22.16
2022-08-01T09:58:57.852Z,22.19
2022-08-01T10:01:26.603Z,22.24
2022-08-01T10:04:09.799Z,22.23
2022-08-01T10:06:37.592Z,22.24
2022-08-01T10:09:04.855Z,22.24
2022-08-01T10:11:36.094Z,22.26
2022-08-01T10:14:04.465Z,22.35
2022-08-01T10:16:31.620Z,22.42
2022-08-01T10:18:58.664Z,22.52
2022-08-01T10:21:56.231Z,22.60
2022-08-01T10:24:18.824Z,22.79
2022-08-01T10:26:48.976Z,23.06
2022-08-01T10:29:45.165Z,23.29
2022-08-01T10:32:10.141Z,23.61
2022-08-01T10:34:38.191Z,23.96
2022-08-01T10:37:08.279Z,24.40
2022-08-01T10:39:35.952Z,24.79
2022-08-01T10:42:05.859Z,25.10
2022-08-01T10:44:37.866Z,25.59
2022-08-01T10:47:14.671Z,26.15
2022-08-01T10:49:54.815Z,26.71
2022-08-01T10:52:21.529Z,27.37
2022-08-01T10:54:52.366Z,28.28
2022-08-01T10:57:19.621Z,29.80
2022-08-01T11:00:01.284Z,31.97
2022-08-01T11:02:34.474Z,34.54
2022-08-01T11:05:19.792Z,36.50
2022-08-01T11:07:54.220Z,37.18
2022-08-01T11:10:40.233Z,38.09
2022-08-01T11:13:12.263Z,39.09
2022-08-01T11:15:50.490Z,39.70
2022-08-01T11:18:32.007Z,38.08
2022-08-01T11:21:59.125Z,38.33
2022-08-01T11:23:54.861Z,38.45
2022-08-01T11:26:28.794Z,37.57
2022-08-01T11:29:23.049Z,38.45
2022-08-01T11:31:50.242Z,37.61
2022-08-01T11:34:16.811Z,37.78
2022-08-01T11:36:58.104Z,38.68
2022-08-01T11:39:25.660Z,39.41
2022-08-01T11:41:53.647Z,40.48
2022-08-01T11:44:30.570Z,41.51
2022-08-01T11:47:08.874Z,42.40
2022-08-01T11:49:55.710Z,43.02
2022-08-01T11:52:37.009Z,43.10
2022-08-01T11:55:03.398Z,41.84
2022-08-01T11:57:38.083Z,42.01
2022-08-01T12:00:17.730Z,42.97
2022-08-01T12:02:46.478Z,43.92
2022-08-01T12:05:21.462Z,44.52
2022-08-01T12:07:52.725Z,44.99
2022-08-01T12:10:21.285Z,45.55
2022-08-01T12:12:50.042Z,46.18
2022-08-01T12:15:17.623Z,46.85
2022-08-01T12:17:57.901Z,47.48
2022-08-01T12:20:32.369Z,47.47
2022-08-01T12:23:01.122Z,47.64
2022-08-01T12:25:27.673Z,47.98
2022-08-01T12:27:56.592Z,48.18
2022-08-01T12:30:25.448Z,47.94
2022-08-01T12:32:53.368Z,47.69
2022-08-01T12:35:24.074Z,47.70
2022-08-01T12:37:53.630Z,47.82
2022-08-01T12:40:22.908Z,47.64
2022-08-01T12:42:52.629Z,47.41
2022-08-01T12:45:31.284Z,47.12
2022-08-01T12:48:00.411Z,46.98
2022-08-01T12:50:30.704Z,45.80
2022-08-01T12:52:58.387Z,44.20
2022-08-01T12:55:34.097Z,42.78
2022-08-01T12:58:15.830Z,40.94
2022-08-01T13:00:45.215Z,39.50
2022-08-01T13:03:19.731Z,38.74
2022-08-01T13:05:47.721Z,38.85
2022-08-01T13:08:19.750Z,38.77
2022-08-01T13:10:47.052Z,38.45
2022-08-01T13:13:22.372Z,37.62
2022-08-01T13:16:05.452Z,36.32
2022-08-01T13:18:33.594Z,35.44
2022-08-01T13:21:16.240Z,34.53
2022-08-01T13:24:04.012Z,33.81
2022-08-01T13:27:01.864Z,33.08
2022-08-01T13:29:39.001Z,32.66
2022-08-01T13:32:29.420Z,32.43
2022-08-01T13:35:09.102Z,32.22
2022-08-01T13:37:38.713Z,31.88
2022-08-01T13:40:06.932Z,31.59
2022-08-01T13:42:33.568Z,31.29
2022-08-01T13:45:00.146Z,30.98
2022-08-01T13:47:31.671Z,30.73
2022-08-01T13:50:03.151Z,30.46
2022-08-01T13:52:31.517Z,30.28
2022-08-01T13:54:58.550Z,30.12
2022-08-01T13:57:25.094Z,29.93
2022-08-01T13:59:52.462Z,29.76
2022-08-01T14:02:20.127Z,29.65
2022-08-01T14:04:46.621Z,29.62
2022-08-01T14:07:14.975Z,29.53
2022-08-01T14:09:45.138Z,29.13
2022-08-01T14:12:29.558Z,29.05
2022-08-01T14:14:55.977Z,29.04
2022-08-01T14:17:22.497Z,29.04
2022-08-01T14:19:49.239Z,29.02
2022-08-01T14:22:15.867Z,28.81
2022-08-01T14:24:42.557Z,28.71
2022-08-01T14:27:09.728Z,28.57
2022-08-01T14:29:59.918Z,28.47
2022-08-01T14:32:25.947Z,28.31
2022-08-01T14:34:55.084Z,28.09
2022-08-01T14:37:21.593Z,28.04
2022-08-01T14:39:54.356Z,27.93
2022-08-01T14:42:21.339Z,27.83
2022-08-01T14:44:49.806Z,27.81
2022-08-01T14:47:21.854Z,27.77
2022-08-01T14:49:49.713Z,27.69
2022-08-01T14:52:16.207Z,27.64
2022-08-01T14:54:42.732Z,27.44
2022-08-01T14:57:09.763Z,27.28
2022-08-01T14:59:36.808Z,27.11
2022-08-01T15:02:03.747Z,26.92
2022-08-01T15:04:31.345Z,26.94
2022-08-01T15:06:58.007Z,26.98
2022-08-01T15:09:24.500Z,26.97
2022-08-01T15:11:52.984Z,26.82
2022-08-01T15:14:38.030Z,26.66
2022-08-01T15:17:04.615Z,26.48
2022-08-01T15:19:31.119Z,26.47
2022-08-01T15:21:57.574Z,26.45
2022-08-01T15:24:25.880Z,26.50
2022-08-01T15:26:52.355Z,26.45
2022-08-01T15:29:19.635Z,26.32
2022-08-01T15:31:46.485Z,26.33
2022-08-01T15:34:13.064Z,26.20
2022-08-01T15:36:41.942Z,26.10
2022-08-01T15:39:12.880Z,26.04
2022-08-01T15:41:39.392Z,25.97
2022-08-01T15:44:05.816Z,25.97
2022-08-01T15:46:32.332Z,25.83
2022-08-01T15:49:03.890Z,25.77
2022-08-01T15:51:30.310Z,25.77
2022-08-01T15:53:56.748Z,25.74
2022-08-01T15:56:23.332Z,25.72
2022-08-01T15:58:49.854Z,25.68
2022-08-01T16:01:16.329Z,25.64
2022-08-01T16:03:42.725Z,25.56
2022-08-01T16:06:09.256Z,25.49
2022-08-01T16:08:35.758Z,25.36
2022-08-01T16:11:02.308Z,25.18
2022-08-01T16:13:28.775Z,25.15
2022-08-01T16:15:55.163Z,25.09
2022-08-01T16:18:21.565Z,25.09
2022-08-01T16:20:48.035Z,24.95
2022-08-01T16:23:15.323Z,24.97
2022-08-01T16:25:41.948Z,24.95
2022-08-01T16:28:09.839Z,24.86
2022-08-01T16:30:37.051Z,24.81
2022-08-01T16:33:14.803Z,24.78
2022-08-01T16:35:50.756Z,24.74
2022-08-01T16:38:21.014Z,24.68
2022-08-01T16:40:49.622Z,24.61
2022-08-01T16:43:17.133Z,24.51
2022-08-01T16:45:44.528Z,24.46
2022-08-01T16:48:12.025Z,24.47
2022-08-01T16:50:39.146Z,24.40
2022-08-01T16:53:05.507Z,24.40
2022-08-01T16:55:49.445Z,24.39
2022-08-01T16:58:19.745Z,24.28
2022-08-01T17:00:57.490Z,24.03
2022-08-01T17:03:51.753Z,24.01
2022-08-01T17:06:15.395Z,23.97
2022-08-01T17:08:46.476Z,23.98
2022-08-01T17:11:14.596Z,24.02
2022-08-01T17:13:41.344Z,24.01
2022-08-01T17:16:08.814Z,24.02
2022-08-01T17:18:35.392Z,23.96
2022-08-01T17:21:01.881Z,23.92
2022-08-01T17:23:28.316Z,23.91
2022-08-01T17:25:54.722Z,23.90
2022-08-01T17:28:23.063Z,23.86
2022-08-01T17:30:49.991Z,23.78
2022-08-01T17:33:16.586Z,23.69
2022-08-01T17:35:43.273Z,23.60
2022-08-01T17:38:09.779Z,23.50
2022-08-01T17:40:40.841Z,23.47
2022-08-01T17:43:08.592Z,23.42
2022-08-01T17:45:39.409Z,23.37
2022-08-01T17:48:17.806Z,23.26
2022-08-01T17:50:46.554Z,23.16
2022-08-01T17:53:14.036Z,23.12
2022-08-01T17:55:55.374Z,23.03
2022-08-01T17:58:49.132Z,22.89
2022-08-01T18:01:15.006Z,22.87
2022-08-01T18:03:42.059Z,22.83
2022-08-01T18:06:14.331Z,22.82
2022-08-01T18:08:42.580Z,22.78
2022-08-01T18:11:09.749Z,22.76
2022-08-01T18:13:40.567Z,22.76
2022-08-01T18:16:09.119Z,22.71
2022-08-01T18:18:35.982Z,22.66
2022-08-01T18:21:02.653Z,22.63
2022-08-01T18:23:29.112Z,22.60
2022-08-01T18:25:55.676Z,22.55
2022-08-01T18:28:32.834Z,22.46
2022-08-01T18:31:00.758Z,22.40
2022-08-01T18:33:27.893Z,22.38
2022-08-01T18:35:56.570Z,22.37
2022-08-01T18:40:57.197Z,22.33
2022-08-01T18:43:23.723Z,22.29
2022-08-01T18:45:50.325Z,22.26
2022-08-01T18:48:16.792Z,22.21
2022-08-01T18:50:43.188Z,22.18
2022-08-01T18:53:09.668Z,22.14
2022-08-01T18:55:36.207Z,22.10
2022-08-01T18:58:02.735Z,22.05
2022-08-01T19:00:29.316Z,21.99
2022-08-01T19:02:55.774Z,21.93
2022-08-01T19:05:22.293Z,21.92
2022-08-01T19:08:05.563Z,21.92
2022-08-01T19:10:38.919Z,21.86
2022-08-01T19:13:05.973Z,21.80
2022-08-01T19:15:32.491Z,21.75
2022-08-01T19:17:58.986Z,21.69
2022-08-01T19:20:26.403Z,21.62
2022-08-01T19:22:52.823Z,21.61
2022-08-01T19:25:19.563Z,21.56
2022-08-01T19:27:48.247Z,21.50
2022-08-01T19:30:16.086Z,21.45
2022-08-01T19:32:43.979Z,21.42
2022-08-01T19:35:13.223Z,21.40
2022-08-01T19:37:44.130Z,21.37
2022-08-01T19:40:10.884Z,21.36
2022-08-01T19:42:53.962Z,21.33
2022-08-01T19:45:20.564Z,21.27
2022-08-01T19:47:50.950Z,21.25
2022-08-01T19:50:24.043Z,21.21
2022-08-01T19:52:52.593Z,21.20
2022-08-01T19:55:19.333Z,21.17
2022-08-01T19:57:59.373Z,21.13
2022-08-01T20:00:37.837Z,21.11
2022-08-01T20:03:05.475Z,21.03
2022-08-01T20:05:32.116Z,20.96
2022-08-01T20:07:58.627Z,20.90
2022-08-01T20:10:25.276Z,20.86
2022-08-01T20:12:52.977Z,20.83
2022-08-01T20:15:21.045Z,20.80
2022-08-01T20:17:47.523Z,20.79
2022-08-01T20:20:13.904Z,20.73
2022-08-01T20:22:41.271Z,20.70
2022-08-01T20:25:09.441Z,20.66
2022-08-01T20:27:38.793Z,20.64
2022-08-01T20:30:05.843Z,20.61
2022-08-01T20:32:33.860Z,20.57
2022-08-01T20:35:01.563Z,20.51
2022-08-01T20:38:03.786Z,20.47
2022-08-01T20:40:16.257Z,20.46
2022-08-01T20:42:45.283Z,20.43
2022-08-01T20:45:16.635Z,20.39
2022-08-01T20:47:46.949Z,20.35
2022-08-01T20:50:53.373Z,20.33
2022-08-01T20:53:18.856Z,20.31
2022-08-01T20:55:49.723Z,20.26
2022-08-01T20:58:27.690Z,20.22
2022-08-01T21:00:56.791Z,20.20
2022-08-01T21:03:31.029Z,20.17
2022-08-01T21:06:07.860Z,20.13
2022-08-01T21:08:47.492Z,20.10
2022-08-01T21:11:19.512Z,20.08
2022-08-01T21:13:49.037Z,20.06
2022-08-01T21:16:22.693Z,20.05
2022-08-01T21:21:56.764Z,20.00
2022-08-01T21:24:32.834Z,19.97
2022-08-01T21:27:00.704Z,19.91
2022-08-01T21:29:27.923Z,19.88
2022-08-01T21:32:12.782Z,19.85
2022-08-01T21:34:40.163Z,19.83
2022-08-01T21:37:10.117Z,19.79
2022-08-01T21:39:37.716Z,19.77
2022-08-01T21:42:09.008Z,19.73
2022-08-01T21:44:38.902Z,19.71
2022-08-01T21:47:06.527Z,19.69
2022-08-01T21:49:38.747Z,19.68
2022-08-01T21:52:17.981Z,19.65
2022-08-01T21:55:01.131Z,19.62
2022-08-01T21:57:28.432Z,19.61
2022-08-01T22:00:26.067Z,19.55
2022-08-01T22:03:08.206Z,19.54
2022-08-01T22:05:51.032Z,19.53
2022-08-01T22:08:44.599Z,19.45
2022-08-01T22:11:13.893Z,19.46
2022-08-01T22:13:41.979Z,19.42
2022-08-01T22:16:10.156Z,19.39
2022-08-01T22:18:37.708Z,19.34
2022-08-01T22:21:04.493Z,19.31
2022-08-01T22:23:35.576Z,19.28
2022-08-01T22:26:02.111Z,19.26
2022-08-01T22:28:29.424Z,19.25
2022-08-01T22:30:57.349Z,19.25
2022-08-01T22:33:23.972Z,19.22
2022-08-01T22:35:52.541Z,19.19
2022-08-01T22:38:22.646Z,19.18
2022-08-01T22:40:52.496Z,19.16
2022-08-01T22:43:30.197Z,19.14
2022-08-01T22:46:14.491Z,19.08
2022-08-01T22:48:51.023Z,19.10
2022-08-01T22:51:38.165Z,19.06
2022-08-01T22:54:09.604Z,19.05
2022-08-01T22:56:41.329Z,19.02
2022-08-01T22:59:16.185Z,18.98
2022-08-01T23:01:47.717Z,18.96
2022-08-01T23:04:33.031Z,18.92
2022-08-01T23:07:05.080Z,18.93
2022-08-01T23:09:39.237Z,18.91
2022-08-01T23:12:22.317Z,18.89
2022-08-01T23:14:51.244Z,18.85
2022-08-01T23:17:27.169Z,18.80
2022-08-01T23:19:57.664Z,18.80
2022-08-01T23:22:29.041Z,18.77
2022-08-01T23:25:04.110Z,18.75
2022-08-01T23:28:03.823Z,18.73
2022-08-01T23:30:24.832Z,18.70
2022-08-01T23:32:51.286Z,18.68
2022-08-01T23:35:17.891Z,18.65
2022-08-01T23:37:44.273Z,18.62
2022-08-01T23:40:11.344Z,18.60
2022-08-01T23:42:37.841Z,18.57
2022-08-01T23:45:04.627Z,18.55
2022-08-01T23:47:31.076Z,18.54
2022-08-01T23:49:57.599Z,18.52
2022-08-01T23:52:24.148Z,18.49
2022-08-01T23:54:56.214Z,18.47
2022-08-01T23:57:23.612Z,18.44
2022-08-01T23:59:53.000Z,18.39
